createdAt,value
2022-10-05T00:08:46.758Z,89.41
2022-10-05T00:12:56.064Z,89.60
2022-10-05T00:16:51.576Z,89.52
2022-10-05T00:21:01.761Z,89.50
2022-10-05T00:24:58.230Z,89.77
2022-10-05T00:29:29.750Z,89.78
2022-10-05T00:33:14.904Z,89.71
2022-10-05T00:37:18.114Z,89.87
2022-10-05T00:41:55.607Z,89.88
2022-10-05T00:50:28.953Z,90.25
2022-10-05T00:54:33.681Z,90.11
2022-10-05T00:58:41.294Z,90.41
2022-10-05T01:02:42.012Z,90.29
2022-10-05T01:06:51.540Z,90.43
2022-10-05T01:10:49.671Z,90.66
2022-10-05T01:15:08.708Z,91.00
2022-10-05T01:18:41.478Z,91.05
2022-10-05T01:21:58.089Z,91.12
2022-10-05T01:25:26.203Z,90.99
2022-10-05T01:29:03.050Z,90.90
2022-10-05T01:32:32.499Z,90.80
2022-10-05T01:36:44.969Z,91.06
2022-10-05T01:43:28.265Z,90.85
2022-10-05T01:46:37.680Z,90.64
2022-10-05T01:51:05.140Z,90.60
2022-10-05T01:55:03.987Z,90.59
2022-10-05T01:59:05.310Z,90.59
2022-10-05T02:02:42.049Z,90.66
2022-10-05T02:07:09.589Z,90.78
2022-10-05T02:15:41.241Z,91.11
2022-10-05T02:19:39.439Z,90.91
2022-10-05T02:23:20.086Z,91.05
2022-10-05T02:26:41.302Z,91.24
2022-10-05T02:30:43.658Z,91.01
2022-10-05T02:33:53.375Z,91.11
2022-10-05T02:37:20.967Z,90.95
2022-10-05T02:45:36.361Z,91.07
2022-10-05T02:49:25.713Z,91.23
2022-10-05T02:53:02.206Z,91.01
2022-10-05T02:56:45.508Z,90.90
2022-10-05T03:00:35.522Z,90.85
2022-10-05T03:04:24.939Z,90.65
2022-10-05T03:07:59.573Z,90.54
2022-10-05T03:11:51.482Z,90.13
2022-10-05T03:15:54.156Z,89.90
2022-10-05T03:19:46.408Z,89.91
2022-10-05T03:23:57.026Z,89.81
2022-10-05T03:27:34.484Z,89.60
2022-10-05T03:31:41.168Z,89.67
2022-10-05T03:35:31.062Z,89.54
2022-10-05T03:39:02.543Z,89.51
2022-10-05T03:43:15.331Z,89.64
2022-10-05T03:47:17.552Z,89.49
2022-10-05T03:50:47.699Z,89.65
2022-10-05T03:54:47.741Z,89.58
2022-10-05T03:58:43.732Z,89.25
2022-10-05T04:03:15.694Z,89.46
2022-10-05T04:07:39.716Z,89.24
2022-10-05T04:12:36.059Z,89.41
2022-10-05T04:20:58.968Z,89.34
2022-10-05T04:34:18.388Z,89.31
2022-10-05T04:39:06.827Z,89.36
2022-10-05T04:42:55.759Z,89.20
2022-10-05T04:47:02.997Z,89.04
2022-10-05T04:50:49.257Z,89.11
2022-10-05T04:54:56.937Z,89.14
2022-10-05T05:03:41.845Z,88.89
2022-10-05T05:07:20.716Z,88.80
2022-10-05T05:11:34.174Z,88.66
2022-10-05T05:14:55.856Z,88.70
2022-10-05T05:19:13.073Z,88.63
2022-10-05T05:23:27.399Z,88.74
2022-10-05T05:27:23.810Z,88.55
2022-10-05T05:40:54.565Z,88.53
2022-10-05T05:42:56.148Z,88.74
2022-10-05T05:44:29.914Z,88.30
2022-10-05T05:47:56.082Z,88.09
2022-10-05T05:51:52.050Z,87.92
2022-10-05T05:55:11.716Z,87.53
2022-10-05T05:59:19.980Z,87.58
2022-10-05T06:02:51.530Z,87.41
2022-10-05T06:06:17.808Z,87.21
2022-10-05T06:09:17.001Z,87.23
2022-10-05T06:12:38.061Z,87.06
2022-10-05T06:16:05.012Z,87.14
2022-10-05T06:19:05.489Z,87.05
2022-10-05T06:22:21.626Z,87.11
2022-10-05T06:25:25.231Z,86.86
2022-10-05T06:28:40.694Z,86.60
2022-10-05T06:31:15.392Z,86.45
2022-10-05T06:34:04.567Z,86.44
2022-10-05T06:37:03.027Z,86.12
2022-10-05T06:39:50.706Z,86.14
2022-10-05T06:43:17.620Z,85.55
2022-10-05T06:46:44.485Z,85.31
2022-10-05T06:50:32.773Z,85.09
2022-10-05T06:54:10.434Z,84.43
2022-10-05T06:57:42.444Z,84.06
2022-10-05T07:00:56.433Z,83.90
2022-10-05T07:04:46.824Z,83.47
2022-10-05T07:08:47.528Z,83.23
2022-10-05T07:12:06.641Z,83.04
2022-10-05T07:15:44.642Z,83.09
2022-10-05T07:19:55.182Z,82.47
2022-10-05T07:24:00.035Z,82.28
2022-10-05T07:27:59.917Z,81.73
2022-10-05T07:31:45.946Z,81.46
2022-10-05T07:35:40.079Z,80.89
2022-10-05T07:39:17.006Z,80.75
2022-10-05T07:42:52.788Z,80.75
2022-10-05T07:50:15.964Z,80.01
2022-10-05T07:53:49.791Z,79.70
2022-10-05T07:57:27.372Z,79.27
2022-10-05T08:00:40.859Z,79.22
2022-10-05T08:04:14.698Z,78.48
2022-10-05T08:08:22.127Z,77.90
2022-10-05T08:11:41.534Z,77.94
2022-10-05T08:15:33.009Z,77.49
2022-10-05T08:18:51.059Z,76.40
2022-10-05T08:23:25.154Z,75.67
2022-10-05T08:27:13.332Z,75.71
2022-10-05T08:30:58.123Z,75.65
2022-10-05T08:35:16.832Z,75.22
2022-10-05T08:39:18.978Z,74.45
2022-10-05T08:43:45.438Z,73.53
2022-10-05T08:51:24.676Z,73.54
2022-10-05T08:55:18.296Z,73.39
2022-10-05T08:58:58.914Z,73.71
2022-10-05T09:03:01.820Z,73.91
2022-10-05T09:07:30.497Z,73.44
2022-10-05T09:11:59.497Z,73.39
2022-10-05T09:15:49.094Z,72.01
2022-10-05T09:19:55.524Z,70.78
2022-10-05T09:28:33.118Z,69.07
2022-10-05T09:36:18.320Z,67.63
2022-10-05T09:40:09.223Z,64.95
2022-10-05T09:47:26.141Z,65.45
2022-10-05T09:51:15.541Z,64.72
2022-10-05T09:55:17.913Z,65.00
2022-10-05T09:59:40.281Z,64.79
2022-10-05T10:03:07.690Z,63.23
2022-10-05T10:07:01.786Z,62.22
2022-10-05T10:11:04.768Z,60.92
2022-10-05T10:15:08.403Z,60.59
2022-10-05T10:19:04.027Z,59.77
2022-10-05T10:23:19.938Z,60.04
2022-10-05T10:27:41.488Z,58.24
2022-10-05T10:31:25.007Z,58.45
2022-10-05T10:35:13.593Z,56.85
2022-10-05T10:39:22.498Z,57.07
2022-10-05T10:43:03.537Z,56.19
2022-10-05T10:46:23.034Z,55.58
2022-10-05T10:50:20.593Z,54.67
2022-10-05T10:54:03.263Z,53.27
2022-10-05T10:57:38.437Z,54.39
2022-10-05T11:01:26.568Z,53.72
2022-10-05T11:05:11.161Z,51.68
2022-10-05T11:13:32.034Z,47.82
2022-10-05T11:17:46.315Z,50.62
2022-10-05T11:21:03.030Z,49.77
2022-10-05T11:25:00.406Z,50.35
2022-10-05T11:28:37.865Z,49.74
2022-10-05T11:36:27.530Z,49.11
2022-10-05T11:44:18.082Z,48.99
2022-10-05T11:52:07.152Z,51.33
2022-10-05T11:56:00.218Z,52.19
2022-10-05T12:03:44.125Z,52.94
2022-10-05T12:07:21.992Z,52.70
2022-10-05T12:11:41.903Z,53.15
2022-10-05T12:15:10.595Z,52.54
2022-10-05T12:23:34.934Z,52.35
2022-10-05T12:32:44.141Z,53.11
2022-10-05T12:36:09.971Z,53.55
2022-10-05T12:40:04.987Z,53.98
2022-10-05T12:43:48.688Z,54.38
2022-10-05T12:47:14.588Z,54.45
2022-10-05T12:51:27.737Z,55.01
2022-10-05T12:55:27.960Z,55.46
2022-10-05T12:59:45.953Z,55.70
2022-10-05T13:33:39.804Z,57.68
2022-10-05T13:37:17.416Z,57.59
2022-10-05T13:40:52.876Z,57.58
2022-10-05T13:44:48.909Z,57.52
2022-10-05T13:48:18.631Z,57.21
2022-10-05T13:51:49.944Z,56.89
2022-10-05T13:55:39.803Z,56.78
2022-10-05T13:59:32.655Z,56.52
2022-10-05T14:02:59.843Z,55.73
2022-10-05T14:06:10.099Z,55.71
2022-10-05T14:09:26.007Z,55.28
2022-10-05T14:12:34.517Z,55.62
2022-10-05T14:15:53.207Z,55.61
2022-10-05T14:18:36.667Z,54.63
2022-10-05T14:22:20.839Z,53.72
2022-10-05T14:25:57.896Z,52.84
2022-10-05T14:29:06.333Z,52.58
2022-10-05T14:33:19.100Z,53.13
2022-10-05T14:37:01.198Z,53.56
2022-10-05T14:39:58.888Z,54.80
2022-10-05T14:43:07.966Z,55.48
2022-10-05T14:46:14.321Z,55.93
2022-10-05T14:49:14.082Z,56.38
2022-10-05T14:52:30.514Z,56.72
2022-10-05T14:56:07.637Z,57.02
2022-10-05T14:59:26.998Z,57.53
2022-10-05T15:02:45.602Z,58.03
2022-10-05T15:06:11.228Z,58.20
2022-10-05T15:09:17.070Z,58.39
2022-10-05T15:12:19.592Z,58.63
2022-10-05T15:15:11.683Z,58.69
2022-10-05T15:18:43.707Z,58.45
2022-10-05T15:22:04.261Z,58.91
2022-10-05T15:25:36.741Z,59.17
2022-10-05T15:28:54.500Z,59.03
2022-10-05T15:32:26.930Z,59.32
2022-10-05T15:35:17.438Z,59.85
2022-10-05T15:48:09.762Z,60.65
2022-10-05T15:51:50.500Z,60.68
2022-10-05T15:54:46.681Z,61.00
2022-10-05T15:57:56.477Z,60.96
2022-10-05T16:00:58.523Z,61.38
2022-10-05T16:04:12.840Z,61.44
2022-10-05T16:08:07.401Z,61.30
2022-10-05T16:11:19.715Z,61.81
2022-10-05T16:18:03.928Z,62.15
2022-10-05T16:21:59.160Z,62.68
2022-10-05T16:25:40.848Z,62.86
2022-10-05T16:29:13.755Z,63.35
2022-10-05T16:33:07.468Z,63.64
2022-10-05T16:36:19.026Z,63.88
2022-10-05T16:39:23.042Z,64.14
2022-10-05T16:42:38.568Z,64.35
2022-10-05T16:46:43.518Z,64.54
2022-10-05T16:50:27.238Z,64.68
2022-10-05T17:04:09.671Z,65.89
2022-10-05T17:08:41.903Z,65.92
2022-10-05T17:13:06.985Z,66.16
2022-10-05T17:17:16.124Z,66.41
2022-10-05T17:27:41.393Z,66.95
2022-10-05T17:31:06.484Z,67.22
2022-10-05T17:34:57.052Z,67.49
2022-10-05T17:37:44.122Z,67.78
2022-10-05T17:41:17.222Z,68.01
2022-10-05T17:44:42.016Z,68.06
2022-10-05T17:48:06.527Z,68.26
2022-10-05T17:51:21.777Z,68.56
2022-10-05T17:54:12.646Z,68.77
2022-10-05T17:56:47.682Z,68.84
2022-10-05T17:59:46.269Z,69.33
2022-10-05T18:02:31.478Z,69.40
2022-10-05T18:05:04.923Z,69.60
2022-10-05T18:08:28.937Z,69.75
2022-10-05T18:11:35.033Z,70.12
2022-10-05T18:15:03.357Z,69.97
2022-10-05T18:17:50.424Z,70.30
2022-10-05T18:20:31.973Z,70.24
2022-10-05T18:23:09.878Z,70.34
2022-10-05T18:26:27.986Z,70.57
2022-10-05T18:29:39.436Z,70.62
2022-10-05T18:32:43.766Z,70.81
2022-10-05T18:35:39.673Z,71.11
2022-10-05T18:38:31.488Z,71.15
2022-10-05T18:41:23.591Z,71.21
2022-10-05T18:44:15.894Z,71.35
2022-10-05T18:47:15.479Z,71.60
2022-10-05T18:50:02.897Z,71.74
2022-10-05T18:53:02.682Z,71.92
2022-10-05T18:55:40.172Z,71.92
2022-10-05T18:59:12.774Z,72.00
2022-10-05T19:02:13.146Z,72.30
2022-10-05T19:05:47.964Z,72.31
2022-10-05T19:08:51.464Z,72.43
2022-10-05T19:12:16.186Z,72.61
2022-10-05T19:15:06.002Z,72.79
2022-10-05T19:18:13.568Z,72.85
2022-10-05T19:21:15.778Z,72.96
2022-10-05T19:24:45.474Z,72.86
2022-10-05T19:27:19.995Z,73.17
2022-10-05T19:30:18.203Z,73.33
2022-10-05T19:33:09.568Z,73.69
2022-10-05T19:36:14.155Z,73.67
2022-10-05T19:38:58.788Z,73.78
2022-10-05T19:42:04.385Z,73.72
2022-10-05T19:45:25.303Z,73.82
2022-10-05T19:47:55.392Z,73.74
2022-10-05T19:50:39.492Z,73.70
2022-10-05T19:53:45.433Z,74.14
2022-10-05T19:56:41.469Z,74.19
2022-10-05T19:59:40.102Z,74.11
2022-10-05T20:02:27.449Z,74.25
2022-10-05T20:05:09.580Z,74.35
2022-10-05T20:07:37.695Z,74.31
2022-10-05T20:10:31.673Z,74.53
2022-10-05T20:13:08.100Z,74.55
2022-10-05T20:16:16.872Z,74.76
2022-10-05T20:19:07.024Z,74.80
2022-10-05T20:22:28.171Z,74.71
2022-10-05T20:25:01.691Z,74.82
2022-10-05T20:28:21.175Z,74.86
2022-10-05T20:30:49.788Z,74.64
2022-10-05T20:33:29.253Z,74.56
2022-10-05T20:36:03.344Z,74.48
2022-10-05T20:38:31.600Z,74.41
2022-10-05T20:41:16.403Z,74.55
2022-10-05T20:43:55.955Z,74.50
2022-10-05T20:46:25.791Z,74.57
2022-10-05T20:49:02.903Z,74.51
2022-10-05T20:51:49.539Z,74.46
2022-10-05T20:54:38.712Z,74.47
2022-10-05T20:57:22.201Z,74.38
2022-10-05T21:00:01.683Z,74.54
2022-10-05T21:02:56.365Z,74.33
2022-10-05T21:05:38.791Z,74.41
2022-10-05T21:08:12.372Z,74.30
2022-10-05T21:11:17.144Z,74.01
2022-10-05T21:13:55.144Z,74.03
2022-10-05T21:16:33.755Z,74.17
2022-10-05T21:19:21.578Z,73.76
2022-10-05T21:21:51.809Z,73.82
2022-10-05T21:24:45.357Z,73.81
2022-10-05T21:27:18.925Z,73.81
2022-10-05T21:30:09.961Z,74.01
2022-10-05T21:32:49.802Z,73.74
2022-10-05T21:35:54.144Z,73.75
2022-10-05T21:38:21.427Z,73.94
2022-10-05T21:40:48.519Z,73.86
2022-10-05T21:43:19.604Z,73.85
2022-10-05T21:45:47.535Z,73.65
2022-10-05T21:48:18.877Z,73.77
2022-10-05T21:50:51.819Z,73.90
2022-10-05T21:53:39.156Z,73.94
2022-10-05T21:56:17.379Z,73.91
2022-10-05T21:58:47.331Z,73.95
2022-10-05T22:01:20.116Z,74.04
2022-10-05T22:04:04.411Z,73.86
2022-10-05T22:06:50.951Z,73.78
2022-10-05T22:09:25.026Z,73.62
2022-10-05T22:12:04.606Z,73.73
2022-10-05T22:14:53.823Z,73.80
2022-10-05T22:17:32.283Z,73.72
2022-10-05T22:20:06.944Z,73.52
2022-10-05T22:23:20.981Z,73.03
2022-10-05T22:25:57.316Z,72.92
2022-10-05T22:28:43.708Z,72.84
2022-10-05T22:31:26.209Z,72.91
2022-10-05T22:34:05.432Z,72.72
2022-10-05T22:36:55.787Z,72.67
2022-10-05T22:39:23.235Z,72.60
2022-10-05T22:42:05.335Z,72.71
2022-10-05T22:44:38.541Z,72.57
2022-10-05T22:47:05.994Z,72.53
2022-10-05T22:49:52.937Z,72.43
2022-10-05T22:52:49.270Z,72.38
2022-10-05T22:55:22.702Z,72.52
2022-10-05T22:58:00.145Z,72.56
2022-10-05T23:00:56.844Z,72.57
2022-10-05T23:03:25.389Z,72.69
2022-10-05T23:06:29.270Z,72.64
2022-10-05T23:08:56.955Z,72.47
2022-10-05T23:11:31.540Z,72.51
2022-10-05T23:14:02.421Z,72.61
2022-10-05T23:16:41.078Z,72.57
2022-10-05T23:19:08.342Z,72.65
2022-10-05T23:22:01.463Z,72.76
2022-10-05T23:24:32.542Z,72.68
2022-10-05T23:27:09.544Z,72.79
2022-10-05T23:29:50.283Z,72.76
2022-10-05T23:32:44.897Z,72.72
2022-10-05T23:35:24.719Z,72.86
2022-10-05T23:37:54.913Z,72.91
2022-10-05T23:40:27.376Z,72.91
2022-10-05T23:43:25.273Z,72.86
2022-10-05T23:46:39.767Z,73.14
2022-10-05T23:49:08.395Z,73.18
2022-10-05T23:51:36.352Z,73.45
2022-10-05T23:54:07.411Z,73.44
2022-10-05T23:56:45.558Z,73.47
2022-10-05T23:59:21.375Z,73.55
